Terminal Aerodrome Forecast
Issued by NWS Cleveland, OH

Home | Current Version | Previous Version | Graphics & Text | Print | Product List | Glossary On
Versions: 1 2 3 4 5 6 7 8 9 10 11 12 13 14 15 16 17 18 19 20 21 22 23 24 25 26
000
FTUS41 KCLE 192344
TAFCAK
TAF
KCAK 192344Z 2000/2024 14009KT P6SM OVC009
     FM200400 11005KT P6SM OVC250
     FM200800 11007KT P6SM OVC080
     FM201100 13009KT 4SM -RA BR OVC015
     FM201300 14010KT 4SM -RA BR OVC009
     FM201600 20010KT 5SM -RA BR OVC009
     FM201800 22008KT P6SM OVC012=

USA.gov is the U.S. government's official web portal to all federal, state and local government web resources and services.